Terminal Aerodrome Forecast
Issued by NWS

Home | Current Version | Previous Version | Graphics & Text | Print | Product List | Glossary On
Versions: 1 2 3 4 5 6 7 8 9 10 11 12 13 14 15 16 17 18 19
114
FTUS43 KBIS 231455 AAA
TAFDIK
TAF AMD
KDIK 231455Z 2315/2412 30015G25KT P6SM SCT110 WS020/31045KT
     FM231700 31026G37KT P6SM SCT080
     FM240100 32017G25KT P6SM SKC WS020/33040KT
     FM240800 31011KT P6SM FEW300=

USA.gov is the U.S. government's official web portal to all federal, state and local government web resources and services.